Forside
METAR-TAF:

METAR-TAF

Lufthavne :

Jaipur, Indien

Breddekreds: 26-49N, længdekreds: 075-48E, højde: 385 m

Aktuelle vejr

Denne rapport blev lavet for 17 minutter siden, kl. 16:30 UTC
Vind 4 kt fra øst
Temperatur 25°C
Fugtighed 28%
Tryk 1014 hPa
Sigt: 3000 m
tåge/dis

METAR: VIJP 231630Z 09004KT 3000 HZ NSC 25/05 Q1014 NOSIG

Tid: 22:17 (16:47 UTC)

Vejrudsigter

Denne rapport blev lavet for 2 timer og 47 minutter siden, kl. 14:00 UTC
Foreløbig gælder fra 23 på 15 UTC til 23 på 24 UTC
Vind 5 kt fra nord
Sigt: 2500 m
tåge/dis

TAF: VIJP 231400Z 2315/2324 36005KT 2500 HZ NSC

Vejrobservationer og prognoser fra mere end 4000 lufthavne (METAR og TAF).

De gule og røde prikker repræsenterer de meteorologiske stationer.

Flyt musen over at se navnet på stationen.

Så klik over at se vejr observationer og prognoser.

At skifte det kort: Klik på de grønne knapper med et sort kors for at zoome ind; på den grønne knap med en bindestreg for at zoome ud; eller på de grønne pile for tilstødende kort.


METAR-TAF: